CW2103 Weather Reports


Display with metric or nautical units.
time (UTC)temp
F
wind
direction
speed
MPH
gust
MPH
rain 1hr
in
rain 24hr
in
rain mn
in
humidity
%
barometer
mb
20180819114410 89 59 4.0 13.0 0.00 0.00 0.00 36 1016.3
20180819112410 90 79 10.0 10.0 0.00 0.00 0.00 37 1016.4
20180819111411 89 29 9.0 10.0 0.00 0.00 0.00 38 1016.4
20180819105410 89 10 4.0 10.0 0.00 0.00 0.00 38 1016.6
20180819104409 88 66 2.0 6.0 0.00 0.00 0.00 39 1016.6
20180819103410 88 78 4.0 10.0 0.00 0.00 0.00 39 1016.8
20180819102410 88 51 4.0 6.0 0.00 0.00 0.00 41 1016.8
20180819100409 88 28 6.0 9.0 0.00 0.00 0.00 41 1016.9
20180819094408 87 86 3.0 6.0 0.00 0.00 0.00 45 1017.2
20180819093408 86 88 4.0 9.0 0.00 0.00 0.00 44 1017.3
20180819091408 86 19 4.0 8.0 0.00 0.00 0.00 44 1017.4
20180819090408 86 19 6.0 6.0 0.00 0.00 0.00 45 1017.5
20180819085408 86 79 2.0 9.0 0.00 0.00 0.00 43 1017.4
20180819084408 86 30 2.0 4.0 0.00 0.00 0.00 43 1017.5
20180819083408 85 92 2.0 4.0 0.00 0.00 0.00 44 1017.6
20180819082408 85 81 2.0 3.0 0.00 0.00 0.00 43 1017.5
20180819081409 84 75 1.0 3.0 0.00 0.00 0.00 45 1017.5
20180819080407 83 75 2.0 3.0 0.00 0.00 0.00 47 1017.6
20180819073408 81 357 1.0 3.0 0.00 0.00 0.00 54 1017.4
20180819065406 77 29 3.0 4.0 0.00 0.00 0.00 64 1017.3
20180819062407 75 10 2.0 4.0 0.00 0.00 0.00 69 1017.2
20180819055405 72 334 3.0 4.0 0.00 0.00 0.00 74 1017.1
20180819054407 71 343 3.0 3.0 0.00 0.00 0.00 75 1017.1
20180819052405 69 334 3.0 4.0 0.00 0.00 0.00 78 1017.1
20180819050406 68 337 3.0 3.0 0.00 0.00 0.00 81 1017.1
20180819045406 67 353 4.0 4.0 0.00 0.00 0.00 82 1017.0
20180819044405 67 24 3.0 5.0 0.00 0.00 0.00 82 1017.0
20180819043406 67 349 2.0 7.0 0.00 0.00 0.00 83 1016.9
20180819041406 67 338 3.0 5.0 0.00 0.00 0.00 83 1016.9
20180819040404 67 25 3.0 3.0 0.00 0.00 0.00 83 1016.9
20180819033404 68 351 2.0 3.0 0.00 0.00 0.00 81 1016.6
20180819031405 68 19 2.0 5.0 0.00 0.00 0.00 81 1016.6
20180819030404 68 354 4.0 7.0 0.00 0.00 0.00 81 1016.7
20180819024405 68 5 4.0 4.0 0.00 0.00 0.00 81 1016.7
20180819023403 68 25 3.0 3.0 0.00 0.00 0.00 80 1016.7
20180819021403 70 358 2.0 3.0 0.00 0.00 0.00 77 1016.7
20180819020402 70 356 2.0 3.0 0.00 0.00 0.00 76 1016.7
20180819015402 71 357 2.0 3.0 0.00 0.00 0.00 75 1016.7
20180819012402 73 316 0.0 1.0 0.00 0.00 0.00 69 1016.8
20180819011402 73 314 3.0 5.0 0.00 0.00 0.00 69 1016.7
20180819010401 73 314 3.0 8.0 0.00 0.00 0.00 70 1016.6
20180819005401 72 329 4.0 6.0 0.00 0.00 0.00 71 1016.7
20180819004401 71 325 4.0 6.0 0.00 0.00 0.00 74 1016.8
20180819003401 71 338 4.0 4.0 0.00 0.00 0.00 75 1016.8
20180819000400 72 348 1.0 3.0 0.00 0.00 0.00 71 1017.1
20180818235400 73 348 3.0 3.0 0.00 0.00 0.00 69 1017.1
20180818234400 74 338 3.0 3.0 0.00 0.00 0.00 67 1017.1
20180818233400 74 337 2.0 3.0 0.00 0.00 0.00 66 1017.1
20180818232400 74 332 3.0 5.0 0.00 0.00 0.00 65 1017.1
20180818231401 75 302 1.0 6.0 0.00 0.00 0.00 64 1017.1
20180818230400 75 324 3.0 3.0 0.00 0.00 0.00 63 1017.2
20180818224400 75 313 3.0 4.0 0.00 0.00 0.00 62 1017.3
20180818223359 75 321 5.0 7.0 0.00 0.00 0.00 62 1017.2
20180818222359 76 306 6.0 8.0 0.00 0.00 0.00 62 1017.3
20180818220359 75 312 3.0 6.0 0.00 0.00 0.00 62 1017.2
20180818215359 76 346 3.0 4.0 0.00 0.00 0.00 62 1017.3
20180818214400 76 345 3.0 5.0 0.00 0.00 0.00 61 1017.2
20180818213359 76 309 3.0 7.0 0.00 0.00 0.00 61 1017.2
20180818211358 76 350 2.0 10.0 0.00 0.00 0.00 61 1017.0
20180818205358 76 352 5.0 10.0 0.00 0.00 0.00 59 1016.9
20180818204359 77 321 5.0 9.0 0.00 0.00 0.00 58 1016.9
20180818202358 77 321 4.0 9.0 0.00 0.00 0.00 56 1016.9
20180818201357 77 324 5.0 8.0 0.00 0.00 0.00 56 1016.8
20180818200357 77 321 4.0 9.0 0.00 0.00 0.00 56 1016.8
20180818195357 77 352 3.0 8.0 0.00 0.00 0.00 59 1016.7
20180818193357 78 1 2.0 4.0 0.00 0.00 0.00 66 1016.5
20180818191358 78 352 3.0 7.0 0.00 0.00 0.00 64 1016.3
20180818185356 78 335 3.0 5.0 0.00 0.00 0.00 69 1016.1
20180818183356 79 344 3.0 4.0 0.00 0.00 0.00 67 1015.9
20180818181357 80 343 3.0 5.0 0.00 0.00 0.00 66 1015.6
20180818175355 81 5 3.0 3.0 0.00 0.00 0.00 69 1015.5
20180818173355 82 31 2.0 3.0 0.00 0.00 0.00 63 1015.2
20180818170356 84 5 3.0 3.0 0.00 0.00 0.00 57 1014.9
20180818165356 84 19 3.0 5.0 0.00 0.00 0.00 55 1014.9
20180818164357 85 37 3.0 3.0 0.00 0.00 0.00 57 1015.0
20180818161355 85 349 3.0 7.0 0.00 0.00 0.00 54 1014.9
20180818160355 84 15 3.0 3.0 0.00 0.00 0.00 57 1014.9
20180818152353 81 5 3.0 5.0 0.00 0.00 0.00 63 1014.8
20180818151354 80 5 3.0 5.0 0.00 0.00 0.00 64 1014.8
20180818145354 80 15 3.0 7.0 0.00 0.00 0.00 64 1014.9
20180818144354 79 348 3.0 7.0 0.00 0.00 0.00 63 1015.0
20180818142353 80 15 3.0 7.0 0.00 0.00 0.00 61 1015.2
20180818140352 79 358 3.0 5.0 0.00 0.00 0.00 61 1015.1
20180818135352 79 19 3.0 7.0 0.00 0.00 0.00 62 1015.2
20180818132352 77 357 5.0 8.0 0.00 0.00 0.00 59 1015.7
20180818131352 77 21 3.0 8.0 0.00 0.00 0.00 58 1015.8
20180818130352 78 15 3.0 8.0 0.00 0.00 0.00 59 1015.8
20180818125351 79 51 4.0 10.0 0.00 0.00 0.00 60 1015.7
20180818123351 80 25 6.0 15.0 0.00 0.00 0.00 55 1015.9
20180818122351 82 349 14.0 16.0 0.00 0.00 0.00 46 1016.0
20180818121351 87 36 7.0 16.0 0.00 0.00 0.00 46 1016.0
20180818120351 89 64 4.0 5.0 0.00 0.00 0.00 44 1015.7
20180818115352 89 325 2.0 7.0 0.00 0.00 0.00 43 1015.5